Observation data for Muleshoe on 02/17/2020      Previous  Date  Next       Current Mesonet Observations  Soil Data  Daily Summary Page  Observations in Plain Language
KMUS 170600Z 24013KT 12/M04 A2982 RMK A01 T01221040  RH  032%=      5-min Rain = 0
KMUS 170605Z 24013G18KT 12/M04 A2982 RMK A01 T01191040  RH  033%=      5-min Rain = 0
KMUS 170610Z 24013KT 12/M04 A2982 RMK A01 T01151039  RH  034%=      5-min Rain = 0
KMUS 170615Z 25013KT 11/M04 A2982 RMK A01 T01121036  RH  035%=      5-min Rain = 0
KMUS 170620Z 24013KT 11/M04 A2982 RMK A01 T01081035  RH  037%=      5-min Rain = 0
KMUS 170625Z 25012KT 11/M03 A2982 RMK A01 T01051033  RH  038%=      5-min Rain = 0
KMUS 170630Z 25011KT 10/M03 A2982 RMK A01 T00991031  RH  040%=      5-min Rain = 0
KMUS 170635Z 25010KT 09/M03 A2982 RMK A01 T00941029  RH  042%=      5-min Rain = 0
KMUS 170640Z 25012KT 09/M03 A2981 RMK A01 T00931028  RH  043%=      5-min Rain = 0
KMUS 170645Z 25013KT 09/M03 A2981 RMK A01 T00941029  RH  042%=      5-min Rain = 0
KMUS 170650Z 25013KT 09/M03 A2981 RMK A01 T00941029  RH  042%=      5-min Rain = 0
KMUS 170655Z 25012KT 09/M03 A2981 RMK A01 T00931028  RH  043%=      5-min Rain = 0
KMUS 170700Z 25012KT 09/M03 A2981 RMK A01 T00911028  RH  044%=      5-min Rain = 0
KMUS 170705Z 25013KT 09/M03 A2981 RMK A01 T00901027  RH  044%=      5-min Rain = 0
KMUS 170710Z 25011KT 09/M03 A2981 RMK A01 T00891026  RH  045%=      5-min Rain = 0
KMUS 170715Z 25012KT 09/M03 A2981 RMK A01 T00891026  RH  045%=      5-min Rain = 0
KMUS 170720Z 25012KT 09/M03 A2981 RMK A01 T00881025  RH  045%=      5-min Rain = 0
KMUS 170725Z 25012KT 09/M03 A2981 RMK A01 T00891025  RH  045%=      5-min Rain = 0
KMUS 170730Z 26012KT 09/M03 A2981 RMK A01 T00911025  RH  044%=      5-min Rain = 0
KMUS 170735Z 26011KT 09/M03 A2981 RMK A01 T00891025  RH  045%=      5-min Rain = 0
KMUS 170740Z 26011KT 09/M02 A2981 RMK A01 T00861024  RH  046%=      5-min Rain = 0
KMUS 170745Z 25011G16KT 08/M02 A2981 RMK A01 T00841023  RH  047%=      5-min Rain = 0
KMUS 170750Z 26011KT 08/M02 A2981 RMK A01 T00831022  RH  048%=      5-min Rain = 0
KMUS 170755Z 25011G16KT 08/M02 A2981 RMK A01 T00811021  RH  049%=      5-min Rain = 0
KMUS 170800Z 25011KT 08/M02 A2981 RMK A01 T00801021  RH  050%=      5-min Rain = 0
KMUS 170805Z 25012KT 08/M02 A2981 RMK A01 T00791020  RH  050%=      5-min Rain = 0
KMUS 170810Z 26011KT 08/M02 A2981 RMK A01 T00771019  RH  051%=      5-min Rain = 0
KMUS 170815Z 26012KT 08/M02 A2981 RMK A01 T00771019  RH  051%=      5-min Rain = 0
KMUS 170820Z 25011KT 08/M02 A2981 RMK A01 T00771019  RH  051%=      5-min Rain = 0
KMUS 170825Z 25010KT 08/M02 A2981 RMK A01 T00751019  RH  052%=      5-min Rain = 0
KMUS 170830Z 26010KT 07/M02 A2981 RMK A01 T00741018  RH  052%=      5-min Rain = 0
KMUS 170835Z 27008KT 07/M02 A2981 RMK A01 T00721018  RH  053%=      5-min Rain = 0
KMUS 170840Z 28006KT 07/M02 A2981 RMK A01 T00701018  RH  054%=      5-min Rain = 0
KMUS 170845Z 28007KT 07/M02 A2981 RMK A01 T00691018  RH  054%=      5-min Rain = 0
KMUS 170850Z 28007KT 07/M02 A2981 RMK A01 T00701019  RH  053%=      5-min Rain = 0
KMUS 170855Z 27008G13KT 07/M02 A2981 RMK A01 T00721020  RH  052%=      5-min Rain = 0
KMUS 170900Z 26010KT 08/M02 A2981 RMK A01 T00801023  RH  048%=      5-min Rain = 0
KMUS 170905Z 26010KT 08/M02 A2981 RMK A01 T00831024  RH  047%=      5-min Rain = 0
KMUS 170910Z 25011KT 08/M02 A2981 RMK A01 T00831024  RH  047%=      5-min Rain = 0
KMUS 170915Z 26010KT 08/M02 A2981 RMK A01 T00811024  RH  048%=      5-min Rain = 0
KMUS 170920Z 26010KT 08/M02 A2981 RMK A01 T00781023  RH  049%=      5-min Rain = 0
KMUS 170925Z 26009KT 07/M02 A2981 RMK A01 T00741023  RH  051%=      5-min Rain = 0
KMUS 170930Z 26010KT 07/M02 A2981 RMK A01 T00721022  RH  051%=      5-min Rain = 0
KMUS 170935Z 25010KT 07/M02 A298 RMK A01 T00701023  RH  052%=      5-min Rain = 0
KMUS 170940Z 25010KT 07/M02 A298 RMK A01 T00701023  RH  052%=      5-min Rain = 0
KMUS 170945Z 25010KT 07/M02 A298 RMK A01 T00691022  RH  053%=      5-min Rain = 0
KMUS 170950Z 25010KT 07/M02 A298 RMK A01 T00681022  RH  053%=      5-min Rain = 0
KMUS 170955Z 26010KT 07/M02 A298 RMK A01 T00661022  RH  054%=      5-min Rain = 0
KMUS 171000Z 26010KT 06/M02 A298 RMK A01 T00641022  RH  055%=      5-min Rain = 0
KMUS 171005Z 26010KT 06/M02 A298 RMK A01 T00611021  RH  056%=      5-min Rain = 0
KMUS 171010Z 26010KT 06/M02 A298 RMK A01 T00591021  RH  057%=      5-min Rain = 0
KMUS 171015Z 26010KT 06/M02 A298 RMK A01 T00571021  RH  057%=      5-min Rain = 0
KMUS 171020Z 26008KT 05/M02 A298 RMK A01 T00531021  RH  060%=      5-min Rain = 0
KMUS 171025Z 27007KT 05/M02 A298 RMK A01 T00471021  RH  062%=      5-min Rain = 0
KMUS 171030Z 27007KT 04/M02 A298 RMK A01 T00421020  RH  064%=      5-min Rain = 0
KMUS 171035Z 28007KT 04/M02 A298 RMK A01 T00411020  RH  065%=      5-min Rain = 0
KMUS 171040Z 27006KT 04/M02 A298 RMK A01 T00411020  RH  065%=      5-min Rain = 0
KMUS 171045Z 27007KT 04/M02 A298 RMK A01 T00391020  RH  066%=      5-min Rain = 0
KMUS 171050Z 26007KT 04/M02 A298 RMK A01 T00361020  RH  067%=      5-min Rain = 0
KMUS 171055Z 25007KT 03/M02 A298 RMK A01 T00341020  RH  068%=      5-min Rain = 0
KMUS 171100Z 26008KT 03/M02 A298 RMK A01 T00331020  RH  069%=      5-min Rain = 0
KMUS 171105Z 25009KT 04/M02 A298 RMK A01 T00361019  RH  068%=      5-min Rain = 0
KMUS 171110Z 25009KT 04/M02 A298 RMK A01 T00411019  RH  066%=      5-min Rain = 0
KMUS 171115Z 26010KT 05/M02 A298 RMK A01 T00451019  RH  063%=      5-min Rain = 0
KMUS 171120Z 26009KT 05/M02 A2981 RMK A01 T00481019  RH  062%=      5-min Rain = 0
KMUS 171125Z 28008KT 05/M02 A2981 RMK A01 T00471019  RH  063%=      5-min Rain = 0
KMUS 171130Z 28008KT 05/M02 A298 RMK A01 T00461019  RH  063%=      5-min Rain = 0
KMUS 171135Z 29007KT 04/M02 A2981 RMK A01 T00401022  RH  065%=      5-min Rain = 0
KMUS 171140Z 28008KT 03/M02 A2981 RMK A01 T00281022  RH  070%=      5-min Rain = 0
KMUS 171145Z 27008KT 02/M02 A2981 RMK A01 T00241021  RH  072%=      5-min Rain = 0
KMUS 171150Z 27009KT 03/M02 A298 RMK A01 T00301018  RH  071%=      5-min Rain = 0
KMUS 171155Z 26010KT 04/M02 A2981 RMK A01 T00401017  RH  067%=      5-min Rain = 0
KMUS 171200Z 24009KT 05/M02 A2981 RMK A01 T00451018  RH  064%=      5-min Rain = 0
KMUS 171205Z 24009KT 04/M02 A2981 RMK A01 T00431019  RH  064%=      5-min Rain = 0
KMUS 171210Z 24008KT 04/M02 A2981 RMK A01 T00381021  RH  066%=      5-min Rain = 0
KMUS 171215Z 24009KT 04/M02 A2981 RMK A01 T00351020  RH  068%=      5-min Rain = 0
KMUS 171220Z 24010KT 04/M02 A2981 RMK A01 T00371019  RH  067%=      5-min Rain = 0
KMUS 171225Z 24011KT 04/M02 A2981 RMK A01 T00391020  RH  066%=      5-min Rain = 0
KMUS 171230Z 25009KT 04/M02 A2981 RMK A01 T00421020  RH  065%=      5-min Rain = 0
KMUS 171235Z 25006KT 04/M02 A2981 RMK A01 T00411021  RH  065%=      5-min Rain = 0
KMUS 171240Z 26006KT 04/M02 A2981 RMK A01 T00391021  RH  066%=      5-min Rain = 0
KMUS 171245Z 26006KT 04/M02 A2981 RMK A01 T00381021  RH  066%=      5-min Rain = 0
KMUS 171250Z 26006KT 04/M02 A2981 RMK A01 T00371021  RH  067%=      5-min Rain = 0
KMUS 171255Z 25007KT 04/M02 A2981 RMK A01 T00361020  RH  067%=      5-min Rain = 0
KMUS 171300Z 24007KT 04/M02 A2981 RMK A01 T00351019  RH  068%=      5-min Rain = 0
KMUS 171305Z 25007KT 03/M02 A2981 RMK A01 T00341020  RH  068%=      5-min Rain = 0
KMUS 171310Z 25005KT 03/M02 A2981 RMK A01 T00321021  RH  069%=      5-min Rain = 0
KMUS 171315Z 26004KT 03/M02 A2982 RMK A01 T00311021  RH  069%=      5-min Rain = 0
KMUS 171320Z 27005KT 03/M02 A2982 RMK A01 T00331020  RH  069%=      5-min Rain = 0
KMUS 171325Z 26007KT 04/M02 A2982 RMK A01 T00381019  RH  067%=      5-min Rain = 0
KMUS 171330Z 26009KT 05/M02 A2982 RMK A01 T00501015  RH  063%=      5-min Rain = 0
KMUS 171335Z 26008KT 06/M02 A2982 RMK A01 T00571017  RH  060%=      5-min Rain = 0
KMUS 171340Z 26008KT 06/M02 A2982 RMK A01 T00571018  RH  059%=      5-min Rain = 0
KMUS 171345Z 26008KT 05/M02 A2982 RMK A01 T00541019  RH  060%=      5-min Rain = 0
KMUS 171350Z 26009KT 05/M02 A2982 RMK A01 T00511018  RH  061%=      5-min Rain = 0
KMUS 171355Z 25010KT 05/M02 A2982 RMK A01 T00541018  RH  061%=      5-min Rain = 0
KMUS 171400Z 26011KT 06/M02 A2982 RMK A01 T00581018  RH  059%=      5-min Rain = 0
KMUS 171405Z 26010KT 06/M02 A2982 RMK A01 T00611017  RH  058%=      5-min Rain = 0
KMUS 171410Z 26009KT 06/M02 A2983 RMK A01 T00631017  RH  057%=      5-min Rain = 0
KMUS 171415Z 25009KT 07/M02 A2983 RMK A01 T00651016  RH  057%=      5-min Rain = 0
KMUS 171420Z 25009KT 07/M01 A2983 RMK A01 T00691014  RH  056%=      5-min Rain = 0
KMUS 171425Z 26009KT 07/M01 A2983 RMK A01 T00731013  RH  055%=      5-min Rain = 0
KMUS 171430Z 26010KT 08/M01 A2983 RMK A01 T00781012  RH  053%=      5-min Rain = 0
KMUS 171435Z 26010KT 08/M01 A2983 RMK A01 T00831011  RH  052%=      5-min Rain = 0
KMUS 171440Z 26010KT 09/M01 A2983 RMK A01 T00871010  RH  051%=      5-min Rain = 0
KMUS 171445Z 27009KT 09/M01 A2983 RMK A01 T00921009  RH  050%=      5-min Rain = 0
KMUS 171450Z 28009KT 10/M01 A2983 RMK A01 T00951006  RH  050%=      5-min Rain = 0
KMUS 171455Z 27009KT 10/M00 A2983 RMK A01 T00951004  RH  050%=      5-min Rain = 0
KMUS 171500Z 27009KT 10/M00 A2983 RMK A01 T01001004  RH  049%=      5-min Rain = 0
KMUS 171505Z 28009KT 10/M00 A2984 RMK A01 T01041004  RH  048%=      5-min Rain = 0
KMUS 171510Z 28009KT 11/M01 A2984 RMK A01 T01071005  RH  046%=      5-min Rain = 0
KMUS 171515Z 29008KT 11/M00 A2984 RMK A01 T01111004  RH  046%=      5-min Rain = 0
KMUS 171520Z 30008KT 11/M00 A2984 RMK A01 T01141001  RH  046%=      5-min Rain = 0
KMUS 171525Z 31009KT 11/00 A2985 RMK A01 T01140001  RH  046%=      5-min Rain = 0
KMUS 171530Z 30010KT 12/M00 A2985 RMK A01 T01151001  RH  045%=      5-min Rain = 0
KMUS 171535Z 29010KT 12/M00 A2985 RMK A01 T01191001  RH  044%=      5-min Rain = 0
KMUS 171540Z 29012KT 13/M00 A2985 RMK A01 T01251003  RH  042%=      5-min Rain = 0
KMUS 171545Z 29012KT 13/M00 A2985 RMK A01 T01301004  RH  040%=      5-min Rain = 0
KMUS 171550Z 29012KT 14/M00 A2985 RMK A01 T01351004  RH  039%=      5-min Rain = 0
KMUS 171555Z 29013KT 14/M01 A2985 RMK A01 T01411005  RH  037%=      5-min Rain = 0
KMUS 171600Z 29012KT 14/M00 A2985 RMK A01 T01411004  RH  037%=      5-min Rain = 0
KMUS 171605Z 29011KT 14/M00 A2986 RMK A01 T01421003  RH  037%=      5-min Rain = 0
KMUS 171610Z 31010KT 14/M00 A2986 RMK A01 T01441001  RH  038%=      5-min Rain = 0
KMUS 171615Z 30009KT 15/00 A2986 RMK A01 T01450003  RH  038%=      5-min Rain = 0
KMUS 171620Z 30009KT 15/00 A2986 RMK A01 T01490003  RH  037%=      5-min Rain = 0
KMUS 171625Z 30009KT 15/00 A2986 RMK A01 T01530004  RH  037%=      5-min Rain = 0
KMUS 171630Z 29011G17KT 16/00 A2986 RMK A01 T01590003  RH  035%=      5-min Rain = 0
KMUS 171635Z 29013G18KT 16/M00 A2985 RMK A01 T01641001  RH  033%=      5-min Rain = 0
KMUS 171640Z 30014KT 17/M00 A2985 RMK A01 T01701001  RH  032%=      5-min Rain = 0
KMUS 171645Z 29013G18KT 17/M00 A2985 RMK A01 T01721001  RH  031%=      5-min Rain = 0
KMUS 171650Z 29015KT 18/M00 A2985 RMK A01 T01761003  RH  030%=      5-min Rain = 0
KMUS 171655Z 29014KT 18/M00 A2985 RMK A01 T01781004  RH  030%=      5-min Rain = 0
KMUS 171700Z 29013G18KT 18/M00 A2985 RMK A01 T01831003  RH  029%=      5-min Rain = 0
KMUS 171705Z 29017G23KT 19/M01 A2985 RMK A01 T01891008  RH  027%=      5-min Rain = 0
KMUS 171710Z 28016G21KT 19/M01 A2984 RMK A01 T01851010  RH  027%=      5-min Rain = 0
KMUS 171715Z 27016G24KT 19/M01 A2984 RMK A01 T01871009  RH  027%=      5-min Rain = 0
KMUS 171720Z 28016KT 19/M01 A2984 RMK A01 T01891011  RH  026%=      5-min Rain = 0
KMUS 171725Z 28016G22KT 19/M01 A2984 RMK A01 T01891012  RH  026%=      5-min Rain = 0
KMUS 171730Z 29016G23KT 19/M01 A2984 RMK A01 T01911011  RH  026%=      5-min Rain = 0
KMUS 171735Z 29015G20KT 19/M01 A2984 RMK A01 T01901010  RH  026%=      5-min Rain = 0
KMUS 171740Z 28013KT 19/M01 A2984 RMK A01 T01911008  RH  026%=      5-min Rain = 0
KMUS 171745Z 29014G19KT 19/M01 A2984 RMK A01 T01941006  RH  026%=      5-min Rain = 0
KMUS 171750Z 28013KT 20/M01 A2984 RMK A01 T01951007  RH  026%=      5-min Rain = 0
KMUS 171755Z 29013G19KT 20/M01 A2984 RMK A01 T02001007  RH  025%=      5-min Rain = 0
KMUS 171800Z 30013G19KT 20/M01 A2984 RMK A01 T01991008  RH  025%=      5-min Rain = 0
KMUS 171805Z 30014KT 20/M01 A2984 RMK A01 T01991008  RH  025%=      5-min Rain = 0
KMUS 171810Z 30014KT 20/M01 A2984 RMK A01 T02011010  RH  024%=      5-min Rain = 0
KMUS 171815Z 30012G17KT 20/M01 A2984 RMK A01 T02021009  RH  024%=      5-min Rain = 0
KMUS 171820Z 28013KT 20/M01 A2984 RMK A01 T02021010  RH  024%=      5-min Rain = 0
KMUS 171825Z 30012G17KT 20/M01 A2984 RMK A01 T02031009  RH  024%=      5-min Rain = 0
KMUS 171830Z 29011KT 20/M01 A2983 RMK A01 T02041009  RH  024%=      5-min Rain = 0
KMUS 171835Z 29011KT 21/M01 A2983 RMK A01 T02051009  RH  024%=      5-min Rain = 0
KMUS 171840Z 32011G16KT 21/M01 A2983 RMK A01 T02081009  RH  024%=      5-min Rain = 0
KMUS 171845Z 33008KT 20/M01 A2983 RMK A01 T02041010  RH  024%=      5-min Rain = 0
KMUS 171850Z 02011G20KT 20/00 A2983 RMK A01 T02010003  RH  027%=      5-min Rain = 0
KMUS 171855Z 03017G22KT 19/01 A2984 RMK A01 T01910009  RH  030%=      5-min Rain = 0
KMUS 171900Z 04015KT 19/01 A2983 RMK A01 T01870009  RH  031%=      5-min Rain = 0
KMUS 171905Z 04015KT 19/01 A2983 RMK A01 T01870007  RH  030%=      5-min Rain = 0
KMUS 171910Z 03015KT 19/01 A2984 RMK A01 T01870006  RH  030%=      5-min Rain = 0
KMUS 171915Z 03012G17KT 19/01 A2983 RMK A01 T01870008  RH  031%=      5-min Rain = 0
KMUS 171920Z 04014KT 19/01 A2983 RMK A01 T01860009  RH  031%=      5-min Rain = 0
KMUS 171925Z 03013G18KT 19/01 A2984 RMK A01 T01860007  RH  030%=      5-min Rain = 0
KMUS 171930Z 04012KT 19/01 A2984 RMK A01 T01880007  RH  030%=      5-min Rain = 0
KMUS 171935Z 04011G17KT 19/01 A2983 RMK A01 T01870006  RH  030%=      5-min Rain = 0
KMUS 171940Z 04015KT 19/01 A2983 RMK A01 T01850006  RH  030%=      5-min Rain = 0
KMUS 171945Z 03014KT 18/01 A2983 RMK A01 T01840006  RH  031%=      5-min Rain = 0
KMUS 171950Z 05012G17KT 19/01 A2983 RMK A01 T01860007  RH  030%=      5-min Rain = 0
KMUS 171955Z 05013KT 18/01 A2983 RMK A01 T01830005  RH  031%=      5-min Rain = 0
KMUS 172000Z 04011G16KT 18/01 A2983 RMK A01 T01810005  RH  031%=      5-min Rain = 0
KMUS 172005Z 05010KT 18/01 A2983 RMK A01 T01820005  RH  031%=      5-min Rain = 0
KMUS 172010Z 05011G16KT 18/00 A2983 RMK A01 T01820004  RH  031%=      5-min Rain = 0
KMUS 172015Z 05009KT 18/01 A2983 RMK A01 T01830006  RH  031%=      5-min Rain = 0
KMUS 172020Z 05010KT 19/00 A2983 RMK A01 T01850004  RH  030%=      5-min Rain = 0
KMUS 172025Z 05009KT 19/00 A2983 RMK A01 T01850004  RH  030%=      5-min Rain = 0
KMUS 172030Z 04010KT 19/00 A2982 RMK A01 T01860004  RH  030%=      5-min Rain = 0
KMUS 172035Z 06011G16KT 18/01 A2982 RMK A01 T01840005  RH  030%=      5-min Rain = 0
KMUS 172040Z 06012KT 18/01 A2982 RMK A01 T01830005  RH  031%=      5-min Rain = 0
KMUS 172045Z 06012KT 18/00 A2982 RMK A01 T01820004  RH  030%=      5-min Rain = 0
KMUS 172050Z 06010KT 18/01 A2982 RMK A01 T01840005  RH  030%=      5-min Rain = 0
KMUS 172055Z 07010KT 19/01 A2982 RMK A01 T01860006  RH  030%=      5-min Rain = 0
KMUS 172100Z 07010KT 19/01 A2982 RMK A01 T01890006  RH  030%=      5-min Rain = 0
KMUS 172105Z 06012KT 19/01 A2982 RMK A01 T01860005  RH  030%=      5-min Rain = 0
KMUS 172110Z 05012KT 18/01 A2981 RMK A01 T01830005  RH  031%=      5-min Rain = 0
KMUS 172115Z 05012KT 19/01 A2981 RMK A01 T01860009  RH  031%=      5-min Rain = 0
KMUS 172120Z 05013KT 18/01 A2981 RMK A01 T01840008  RH  031%=      5-min Rain = 0
KMUS 172125Z 04013KT 18/01 A2981 RMK A01 T01840006  RH  031%=      5-min Rain = 0
KMUS 172130Z 05014KT 18/01 A2981 RMK A01 T01840008  RH  031%=      5-min Rain = 0
KMUS 172135Z 05015KT 18/01 A2981 RMK A01 T01830010  RH  032%=      5-min Rain = 0
KMUS 172140Z 05013G19KT 18/01 A2981 RMK A01 T01830009  RH  031%=      5-min Rain = 0
KMUS 172145Z 05015KT 18/01 A2981 RMK A01 T01810008  RH  031%=      5-min Rain = 0
KMUS 172150Z 05014KT 18/01 A2981 RMK A01 T01790009  RH  032%=      5-min Rain = 0
KMUS 172155Z 05014KT 18/01 A2981 RMK A01 T01800008  RH  032%=      5-min Rain = 0
KMUS 172200Z 05014KT 18/01 A2981 RMK A01 T01800011  RH  032%=      5-min Rain = 0
KMUS 172205Z 05013KT 18/01 A2981 RMK A01 T01800013  RH  033%=      5-min Rain = 0
KMUS 172210Z 06014KT 18/01 A2982 RMK A01 T01800014  RH  033%=      5-min Rain = 0
KMUS 172215Z 05013KT 18/01 A2981 RMK A01 T01790013  RH  033%=      5-min Rain = 0
KMUS 172220Z 05014G19KT 18/01 A2981 RMK A01 T01780013  RH  034%=      5-min Rain = 0
KMUS 172225Z 05014KT 18/02 A2981 RMK A01 T01750016  RH  035%=      5-min Rain = 0
KMUS 172230Z 05014KT 17/02 A2981 RMK A01 T01730016  RH  035%=      5-min Rain = 0
KMUS 172235Z 05013KT 17/02 A2981 RMK A01 T01730019  RH  036%=      5-min Rain = 0
KMUS 172240Z 05013KT 17/02 A2981 RMK A01 T01710020  RH  037%=      5-min Rain = 0
KMUS 172245Z 06012KT 17/02 A2982 RMK A01 T01710023  RH  038%=      5-min Rain = 0
KMUS 172250Z 05014KT 17/02 A2982 RMK A01 T01690023  RH  038%=      5-min Rain = 0
KMUS 172255Z 06014G19KT 17/03 A2982 RMK A01 T01650029  RH  041%=      5-min Rain = 0
KMUS 172300Z 05014G19KT 16/03 A2982 RMK A01 T01600031  RH  043%=      5-min Rain = 0
KMUS 172305Z 05015G21KT 16/03 A2982 RMK A01 T01570033  RH  044%=      5-min Rain = 0
KMUS 172310Z 06015KT 15/03 A2982 RMK A01 T01540034  RH  046%=      5-min Rain = 0
KMUS 172315Z 05013G19KT 15/04 A2983 RMK A01 T01510035  RH  047%=      5-min Rain = 0
KMUS 172320Z 06014KT 15/04 A2983 RMK A01 T01490035  RH  047%=      5-min Rain = 0
KMUS 172325Z 05013G18KT 15/03 A2983 RMK A01 T01470034  RH  047%=      5-min Rain = 0
KMUS 172330Z 06012KT 15/04 A2983 RMK A01 T01470036  RH  048%=      5-min Rain = 0
KMUS 172335Z 05013KT 14/04 A2983 RMK A01 T01440036  RH  049%=      5-min Rain = 0
KMUS 172340Z 06014KT 14/04 A2983 RMK A01 T01410037  RH  050%=      5-min Rain = 0
KMUS 172345Z 06013KT 14/04 A2984 RMK A01 T01380037  RH  052%=      5-min Rain = 0
KMUS 172350Z 06013KT 14/04 A2984 RMK A01 T01350037  RH  052%=      5-min Rain = 0
KMUS 172355Z 06013KT 13/04 A2984 RMK A01 T01330038  RH  054%=      5-min Rain = 0
KMUS 180000Z 05012KT 13/04 A2984 RMK A01 T01290040  RH  056%=      5-min Rain = 0
KMUS 180005Z 05012G17KT 13/04 A2984 RMK A01 T01250040  RH  057%=      5-min Rain = 0
KMUS 180010Z 05012G17KT 12/04 A2985 RMK A01 T01200039  RH  059%=      5-min Rain = 0
KMUS 180015Z 05012KT 12/04 A2985 RMK A01 T01160039  RH  060%=      5-min Rain = 0
KMUS 180020Z 05012KT 11/04 A2985 RMK A01 T01130039  RH  062%=      5-min Rain = 0
KMUS 180025Z 05013KT 11/04 A2986 RMK A01 T01090038  RH  063%=      5-min Rain = 0
KMUS 180030Z 05011KT 10/04 A2986 RMK A01 T01040038  RH  065%=      5-min Rain = 0
KMUS 180035Z 05011G16KT 10/04 A2986 RMK A01 T01010038  RH  066%=      5-min Rain = 0
KMUS 180040Z 06009KT 10/04 A2986 RMK A01 T00980038  RH  068%=      5-min Rain = 0
KMUS 180045Z 06010KT 09/04 A2987 RMK A01 T00940038  RH  069%=      5-min Rain = 0
KMUS 180050Z 06009KT 09/04 A2987 RMK A01 T00930038  RH  070%=      5-min Rain = 0
KMUS 180055Z 06009KT 09/04 A2987 RMK A01 T00900038  RH  071%=      5-min Rain = 0
KMUS 180100Z 06009KT 09/04 A2988 RMK A01 T00890038  RH  072%=      5-min Rain = 0
KMUS 180105Z 06009KT 09/04 A2988 RMK A01 T00860038  RH  073%=      5-min Rain = 0
KMUS 180110Z 06008KT 08/04 A2988 RMK A01 T00840037  RH  074%=      5-min Rain = 0
KMUS 180115Z 06008KT 08/04 A2989 RMK A01 T00820037  RH  075%=      5-min Rain = 0
KMUS 180120Z 06008KT 08/04 A2989 RMK A01 T00800037  RH  076%=      5-min Rain = 0
KMUS 180125Z 06009KT 08/04 A2989 RMK A01 T00780038  RH  077%=      5-min Rain = 0
KMUS 180130Z 07010KT 08/04 A2989 RMK A01 T00770039  RH  078%=      5-min Rain = 0
KMUS 180135Z 06009KT 08/04 A2989 RMK A01 T00770040  RH  079%=      5-min Rain = 0
KMUS 180140Z 06009KT 08/04 A2989 RMK A01 T00750040  RH  080%=      5-min Rain = 0
KMUS 180145Z 07009KT 07/04 A299 RMK A01 T00740040  RH  081%=      5-min Rain = 0
KMUS 180150Z 06009KT 07/04 A299 RMK A01 T00740040  RH  081%=      5-min Rain = 0
KMUS 180155Z 06008KT 07/04 A299 RMK A01 T00720040  RH  082%=      5-min Rain = 0
KMUS 180200Z 07007KT 07/04 A2991 RMK A01 T00710040  RH  082%=      5-min Rain = 0
KMUS 180205Z 07009KT 07/04 A2991 RMK A01 T00690040  RH  083%=      5-min Rain = 0
KMUS 180210Z 07008KT 07/04 A2991 RMK A01 T00690040  RH  083%=      5-min Rain = 0
KMUS 180215Z 07008KT 07/04 A2991 RMK A01 T00670039  RH  084%=      5-min Rain = 0
KMUS 180220Z 08009KT 07/04 A2992 RMK A01 T00660039  RH  084%=      5-min Rain = 0
KMUS 180225Z 08008KT 07/04 A2992 RMK A01 T00650039  RH  085%=      5-min Rain = 0
KMUS 180230Z 07007KT 07/04 A2992 RMK A01 T00650039  RH  085%=      5-min Rain = 0
KMUS 180235Z 07008KT 06/04 A2993 RMK A01 T00640039  RH  086%=      5-min Rain = 0
KMUS 180240Z 06007KT 06/04 A2993 RMK A01 T00630039  RH  086%=      5-min Rain = 0
KMUS 180245Z 06006KT 06/04 A2993 RMK A01 T00600037  RH  087%=      5-min Rain = 0
KMUS 180250Z 05006KT 06/04 A2993 RMK A01 T00580036  RH  087%=      5-min Rain = 0
KMUS 180255Z 05007KT 06/04 A2993 RMK A01 T00570037  RH  088%=      5-min Rain = 0
KMUS 180300Z 05006KT 06/04 A2993 RMK A01 T00590038  RH  089%=      5-min Rain = 0
KMUS 180305Z 05006KT 06/04 A2993 RMK A01 T00590039  RH  088%=      5-min Rain = 0
KMUS 180310Z 05006KT 06/04 A2993 RMK A01 T00580038  RH  089%=      5-min Rain = 0
KMUS 180315Z 06006KT 06/04 A2994 RMK A01 T00580038  RH  089%=      5-min Rain = 0
KMUS 180320Z 08005KT 06/04 A2995 RMK A01 T00550035  RH  088%=      5-min Rain = 0
KMUS 180325Z 06005KT 05/03 A2995 RMK A01 T00500032  RH  089%=      5-min Rain = 0
KMUS 180330Z 06005KT 05/03 A2995 RMK A01 T00500034  RH  091%=      5-min Rain = 0
KMUS 180335Z 04004KT 05/03 A2995 RMK A01 T00500034  RH  091%=      5-min Rain = 0
KMUS 180340Z 05004KT 05/03 A2996 RMK A01 T00480032  RH  091%=      5-min Rain = 0
KMUS 180345Z 04006KT 05/03 A2995 RMK A01 T00480033  RH  092%=      5-min Rain = 0
KMUS 180350Z 05005KT 05/03 A2996 RMK A01 T00490034  RH  092%=      5-min Rain = 0
KMUS 180355Z 05005KT 05/04 A2996 RMK A01 T00510037  RH  092%=      5-min Rain = 0
KMUS 180400Z 05006KT 05/04 A2996 RMK A01 T00540039  RH  092%=      5-min Rain = 0
KMUS 180405Z 04006KT 06/04 A2996 RMK A01 T00550041  RH  092%=      5-min Rain = 0
KMUS 180410Z 04006KT 06/04 A2996 RMK A01 T00570041  RH  092%=      5-min Rain = 0
KMUS 180415Z 04008KT 06/04 A2996 RMK A01 T00570041  RH  091%=      5-min Rain = 0
KMUS 180420Z 05007KT 06/04 A2996 RMK A01 T00570041  RH  091%=      5-min Rain = 0
KMUS 180425Z 05008KT 06/04 A2996 RMK A01 T00580041  RH  091%=      5-min Rain = 0
KMUS 180430Z 06007KT 06/04 A2996 RMK A01 T00570040  RH  091%=      5-min Rain = 0
KMUS 180435Z 06007KT 06/04 A2996 RMK A01 T00560040  RH  091%=      5-min Rain = 0
KMUS 180440Z 05006KT 06/04 A2997 RMK A01 T00550039  RH  091%=      5-min Rain = 0
KMUS 180445Z 05006KT 05/04 A2996 RMK A01 T00540039  RH  092%=      5-min Rain = 0
KMUS 180450Z 05005KT 05/04 A2997 RMK A01 T00530039  RH  092%=      5-min Rain = 0
KMUS 180455Z 06004KT 05/04 A2997 RMK A01 T00520038  RH  092%=      5-min Rain = 0
KMUS 180500Z 06005KT 05/04 A2997 RMK A01 T00510037  RH  093%=      5-min Rain = 0
KMUS 180505Z 06006KT 05/04 A2996 RMK A01 T00510038  RH  093%=      5-min Rain = 0
KMUS 180510Z 06007KT 05/04 A2996 RMK A01 T00510038  RH  093%=      5-min Rain = 0
KMUS 180515Z 06007KT 05/04 A2996 RMK A01 T00510038  RH  093%=      5-min Rain = 0
KMUS 180520Z 06007KT 05/04 A2996 RMK A01 T00500037  RH  093%=      5-min Rain = 0
KMUS 180525Z 06006KT 05/04 A2996 RMK A01 T00500037  RH  093%=      5-min Rain = 0
KMUS 180530Z 06006KT 05/04 A2996 RMK A01 T00490037  RH  093%=      5-min Rain = 0
KMUS 180535Z 06006KT 05/04 A2996 RMK A01 T00480036  RH  094%=      5-min Rain = 0
KMUS 180540Z 06006KT 05/04 A2996 RMK A01 T00470035  RH  094%=      5-min Rain = 0
KMUS 180545Z 07005KT 05/04 A2996 RMK A01 T00460035  RH  094%=      5-min Rain = 0
KMUS 180550Z 07003KT 04/03 A2997 RMK A01 T00430031  RH  094%=      5-min Rain = 0
KMUS 180555Z 07004KT 04/03 A2997 RMK A01 T00390028  RH  094%=      5-min Rain = 0

Page generated in 0.0428 seconds.